Time,TemperatureF,DewpointF,PressureIn,WindDirection,WindDirectionDegrees,WindSpeedMPH,WindSpeedGustMPH,Humidity,HourlyPrecipIn,Conditions,Clouds,dailyrainin,SoftwareType,DateUTC
2013-02-21 00:00:00,19.6,8.3,29.09,SE,135,10.4,10.4,61,0.00,CLR,,0.00,WeatherDisplay:10.37,2013-02-21 06:00:00,
2013-02-21 00:05:00,19.6,8.3,29.09,SE,135,10.4,10.4,61,0.00,CLR,,0.00,WeatherDisplay:10.37,2013-02-21 06:05:00,
2013-02-21 00:10:00,19.8,8.8,29.10,East,90,11.5,11.5,62,0.00,CLR,,0.00,WeatherDisplay:10.37,2013-02-21 06:10:00,
2013-02-21 00:15:00,19.8,8.8,29.09,SSE,158,9.2,9.2,62,0.00,CLR,,0.00,WeatherDisplay:10.37,2013-02-21 06:15:00,
2013-02-21 00:21:00,19.8,8.8,29.10,SE,135,8.1,8.1,62,0.00,CLR,,0.00,WeatherDisplay:10.37,2013-02-21 06:21:00,
2013-02-21 00:26:00,19.8,9.2,29.09,SE,135,10.4,10.4,63,0.00,CLR,,0.00,WeatherDisplay:10.37,2013-02-21 06:26:00,
2013-02-21 00:31:00,19.8,9.2,29.08,SE,135,10.4,10.4,63,0.00,CLR,,0.00,WeatherDisplay:10.37,2013-02-21 06:31:00,
2013-02-21 00:36:00,19.8,9.2,29.08,ESE,112,9.2,9.2,63,0.00,CLR,,0.00,WeatherDisplay:10.37,2013-02-21 06:36:00,
2013-02-21 00:42:00,19.8,9.2,29.09,ESE,112,11.5,11.5,63,0.00,CLR,,0.00,WeatherDisplay:10.37,2013-02-21 06:42:00,
2013-02-21 00:47:00,19.8,9.2,29.09,SE,135,9.2,9.2,63,0.00,CLR,,0.00,WeatherDisplay:10.37,2013-02-21 06:47:00,
2013-02-21 00:52:00,19.8,9.5,29.08,SE,135,10.4,10.4,64,0.00,CLR,,0.00,WeatherDisplay:10.37,2013-02-21 06:52:00,
2013-02-21 00:57:00,19.8,9.5,29.08,East,90,12.7,12.7,64,0.00,CLR,,0.00,WeatherDisplay:10.37,2013-02-21 06:57:00,
2013-02-21 01:02:00,19.8,9.5,29.08,SE,135,8.1,8.1,64,0.00,CLR,,0.00,WeatherDisplay:10.37,2013-02-21 07:02:00,
2013-02-21 01:07:00,19.8,9.5,29.08,ESE,112,8.1,8.1,64,0.00,CLR,,0.00,WeatherDisplay:10.37,2013-02-21 07:07:00,
2013-02-21 01:13:00,19.6,9.4,29.07,East,90,12.7,12.7,64,0.00,CLR,,0.00,WeatherDisplay:10.37,2013-02-21 07:13:00,
2013-02-21 01:18:00,19.6,9.7,29.07,East,90,10.4,10.4,65,0.00,CLR,,0.00,WeatherDisplay:10.37,2013-02-21 07:18:00,
2013-02-21 01:23:00,19.4,9.5,29.07,East,90,9.2,9.2,65,0.00,CLR,,0.00,WeatherDisplay:10.37,2013-02-21 07:23:00,
2013-02-21 01:28:00,19.2,9.7,29.07,East,90,8.1,8.1,66,0.00,CLR,,0.00,WeatherDisplay:10.37,2013-02-21 07:28:00,
2013-02-21 01:33:00,19.2,9.7,29.06,East,90,10.4,10.4,66,0.00,CLR,,0.00,WeatherDisplay:10.37,2013-02-21 07:33:00,
2013-02-21 01:39:00,19.0,9.5,29.06,East,90,8.1,8.1,66,0.00,CLR,,0.00,WeatherDisplay:10.37,2013-02-21 07:39:00,
2013-02-21 01:44:00,19.0,9.9,29.06,East,90,9.2,9.2,67,0.00,CLR,,0.00,WeatherDisplay:10.37,2013-02-21 07:44:00,
2013-02-21 01:49:00,19.0,9.9,29.06,East,90,8.1,8.1,67,0.00,CLR,,0.00,WeatherDisplay:10.37,2013-02-21 07:49:00,
2013-02-21 01:54:00,19.0,9.9,29.06,ESE,112,8.1,8.1,67,0.00,CLR,,0.00,WeatherDisplay:10.37,2013-02-21 07:54:00,
2013-02-21 01:59:00,19.0,9.9,29.06,ESE,112,8.1,8.1,67,0.00,CLR,,0.00,WeatherDisplay:10.37,2013-02-21 07:59:00,
2013-02-21 02:05:00,19.0,9.9,29.06,East,90,8.1,8.1,67,0.00,CLR,,0.00,WeatherDisplay:10.37,2013-02-21 08:05:00,
2013-02-21 02:10:00,18.9,10.0,29.05,East,90,8.1,8.1,68,0.00,CLR,,0.00,WeatherDisplay:10.37,2013-02-21 08:10:00,
2013-02-21 02:15:00,18.9,10.0,29.05,East,90,8.1,8.1,68,0.00,CLR,,0.00,WeatherDisplay:10.37,2013-02-21 08:15:00,
2013-02-21 02:20:00,18.9,10.0,29.05,East,90,8.1,8.1,68,0.00,CLR,,0.00,WeatherDisplay:10.37,2013-02-21 08:20:00,
2013-02-21 02:25:00,18.7,10.2,29.05,ESE,112,8.1,8.1,69,0.00,CLR,,0.00,WeatherDisplay:10.37,2013-02-21 08:25:00,
2013-02-21 02:31:00,18.7,10.2,29.04,East,90,8.1,8.1,69,0.00,CLR,,0.00,WeatherDisplay:10.37,2013-02-21 08:31:00,
2013-02-21 02:36:00,18.7,10.2,29.04,ESE,112,8.1,8.1,69,0.00,CLR,,0.00,WeatherDisplay:10.37,2013-02-21 08:36:00,
2013-02-21 02:41:00,18.5,10.3,29.04,East,90,8.1,8.1,70,0.00,CLR,,0.00,WeatherDisplay:10.37,2013-02-21 08:41:00,
2013-02-21 02:47:00,18.5,10.3,29.04,East,90,8.1,8.1,70,0.00,CLR,,0.00,WeatherDisplay:10.37,2013-02-21 08:47:00,
2013-02-21 02:52:00,18.5,10.3,29.03,East,90,8.1,8.1,70,0.00,CLR,,0.00,WeatherDisplay:10.37,2013-02-21 08:52:00,
2013-02-21 02:57:00,18.5,10.3,29.02,East,90,8.1,8.1,70,0.00,CLR,,0.00,WeatherDisplay:10.37,2013-02-21 08:57:00,
2013-02-21 03:02:00,18.5,10.3,29.02,East,90,8.1,8.1,70,0.00,CLR,,0.00,WeatherDisplay:10.37,2013-02-21 09:02:00,
2013-02-21 03:08:00,18.3,10.5,29.01,East,90,8.1,8.1,71,0.00,CLR,,0.00,WeatherDisplay:10.37,2013-02-21 09:08:00,
2013-02-21 03:13:00,18.1,10.6,29.01,East,90,8.1,8.1,72,0.00,CLR,,0.00,WeatherDisplay:10.37,2013-02-21 09:13:00,
2013-02-21 03:18:00,18.1,10.6,29.00,East,90,8.1,8.1,72,0.00,CLR,,0.00,WeatherDisplay:10.37,2013-02-21 09:18:00,
2013-02-21 03:23:00,18.1,10.9,29.00,East,90,8.1,8.1,73,0.00,CLR,,0.00,WeatherDisplay:10.37,2013-02-21 09:23:00,
2013-02-21 03:29:00,18.1,10.9,29.00,East,90,5.8,5.8,73,0.00,CLR,,0.00,WeatherDisplay:10.37,2013-02-21 09:29:00,
2013-02-21 03:34:00,18.3,11.1,29.00,East,90,7.6,7.6,73,0.00,CLR,,0.00,WeatherDisplay:10.37,2013-02-21 09:34:00,
2013-02-21 03:39:00,18.3,11.1,29.00,East,90,8.1,8.1,73,0.00,CLR,,0.00,WeatherDisplay:10.37,2013-02-21 09:39:00,
2013-02-21 03:44:00,18.3,11.1,29.01,East,90,5.8,5.8,73,0.00,CLR,,0.00,WeatherDisplay:10.37,2013-02-21 09:44:00,
2013-02-21 03:49:00,18.7,11.5,29.01,East,90,8.1,8.1,73,0.00,CLR,,0.00,WeatherDisplay:10.37,2013-02-21 09:49:00,
2013-02-21 03:55:00,18.9,11.3,29.01,ESE,112,10.4,10.4,72,0.00,CLR,,0.00,WeatherDisplay:10.37,2013-02-21 09:55:00,
2013-02-21 04:00:00,19.0,11.5,29.00,SE,135,9.2,9.2,72,0.00,CLR,,0.00,WeatherDisplay:10.37,2013-02-21 10:00:00,
2013-02-21 04:05:00,19.0,11.5,29.00,SE,135,6.9,6.9,72,0.00,CLR,,0.00,WeatherDisplay:10.37,2013-02-21 10:05:00,
2013-02-21 04:10:00,18.9,11.3,28.99,East,90,9.2,9.2,72,0.00,CLR,,0.00,WeatherDisplay:10.37,2013-02-21 10:10:00,
2013-02-21 04:15:00,18.7,11.1,29.01,SE,135,10.4,10.4,72,0.00,CLR,,0.00,WeatherDisplay:10.37,2013-02-21 10:15:00,
2013-02-21 04:21:00,18.9,11.3,29.02,SE,135,10.4,10.4,72,0.00,CLR,,0.00,WeatherDisplay:10.37,2013-02-21 10:21:00,
2013-02-21 04:26:00,19.0,11.5,29.01,SE,135,11.5,11.5,72,0.00,CLR,,0.00,WeatherDisplay:10.37,2013-02-21 10:26:00,
2013-02-21 04:31:00,19.2,11.7,29.03,SE,135,9.2,9.2,72,0.00,CLR,,0.00,WeatherDisplay:10.37,2013-02-21 10:31:00,
2013-02-21 04:37:00,19.2,11.7,29.03,SE,135,15.0,15.0,72,0.00,CLR,,0.00,WeatherDisplay:10.37,2013-02-21 10:37:00,
2013-02-21 04:42:00,19.2,11.4,29.02,East,90,11.5,11.5,71,0.00,CLR,,0.00,WeatherDisplay:10.37,2013-02-21 10:42:00,
2013-02-21 04:47:00,19.2,11.4,29.03,ESE,112,10.4,10.4,71,0.00,CLR,,0.00,WeatherDisplay:10.37,2013-02-21 10:47:00,
2013-02-21 04:52:00,19.2,11.4,29.02,East,90,11.5,11.5,71,0.00,CLR,,0.00,WeatherDisplay:10.37,2013-02-21 10:52:00,
2013-02-21 04:57:00,19.2,11.4,29.01,East,90,12.7,12.7,71,0.00,CLR,,0.00,WeatherDisplay:10.37,2013-02-21 10:57:00,
2013-02-21 05:03:00,19.2,11.4,29.01,East,90,13.8,13.8,71,0.00,CLR,,0.00,WeatherDisplay:10.37,2013-02-21 11:03:00,
2013-02-21 05:08:00,19.2,11.7,29.01,SE,135,13.8,13.8,72,0.00,CLR,,0.00,WeatherDisplay:10.37,2013-02-21 11:08:00,
2013-02-21 05:13:00,19.0,11.5,29.00,East,90,13.8,13.8,72,0.00,CLR,,0.00,WeatherDisplay:10.37,2013-02-21 11:13:00,
2013-02-21 05:18:00,19.0,11.5,29.00,East,90,12.7,12.7,72,0.00,CLR,,0.00,WeatherDisplay:10.37,2013-02-21 11:18:00,
2013-02-21 05:23:00,19.0,11.5,29.01,ESE,112,10.4,10.4,72,0.00,CLR,,0.00,WeatherDisplay:10.37,2013-02-21 11:23:00,
2013-02-21 05:29:00,18.9,11.3,29.00,East,90,12.7,12.7,72,0.00,CLR,,0.00,WeatherDisplay:10.37,2013-02-21 11:29:00,
2013-02-21 05:34:00,18.9,11.3,29.00,East,90,13.8,13.8,72,0.00,CLR,,0.00,WeatherDisplay:10.37,2013-02-21 11:34:00,
2013-02-21 05:39:00,18.9,11.6,28.98,East,90,15.0,15.0,73,0.00,CLR,,0.00,WeatherDisplay:10.37,2013-02-21 11:39:00,
2013-02-21 05:44:00,18.9,11.6,28.98,East,90,12.7,12.7,73,0.00,CLR,,0.00,WeatherDisplay:10.37,2013-02-21 11:44:00,
2013-02-21 05:49:00,18.9,11.6,28.99,East,90,12.7,12.7,73,0.00,CLR,,0.00,WeatherDisplay:10.37,2013-02-21 11:49:00,
2013-02-21 05:54:00,18.7,11.8,28.99,East,90,12.7,12.7,74,0.00,CLR,,0.00,WeatherDisplay:10.37,2013-02-21 11:54:00,
2013-02-21 06:00:00,18.7,11.8,28.99,East,90,8.0,13.0,74,0.00,CLR,,0.00,WeatherDisplay:10.37,2013-02-21 12:00:00,
2013-02-21 06:05:00,18.7,11.8,29.00,East,90,16.1,16.1,74,0.00,CLR,,0.00,WeatherDisplay:10.37,2013-02-21 12:05:00,
2013-02-21 06:10:00,18.5,11.6,29.00,East,90,12.7,12.7,74,0.00,CLR,,0.00,WeatherDisplay:10.37,2013-02-21 12:10:00,
2013-02-21 06:15:00,18.5,11.6,28.99,East,90,16.1,16.1,74,0.00,CLR,,0.00,WeatherDisplay:10.37,2013-02-21 12:15:00,
2013-02-21 06:20:00,18.3,11.7,29.00,East,90,15.0,15.0,75,0.00,CLR,,0.00,WeatherDisplay:10.37,2013-02-21 12:20:00,
2013-02-21 06:26:00,18.3,11.7,29.00,East,90,13.8,13.8,75,0.00,CLR,,0.00,WeatherDisplay:10.37,2013-02-21 12:26:00,
2013-02-21 06:31:00,18.1,11.8,29.00,East,90,13.8,13.8,76,0.00,CLR,,0.00,WeatherDisplay:10.37,2013-02-21 12:31:00,
2013-02-21 06:36:00,18.1,11.8,29.00,East,90,12.7,12.7,76,0.00,CLR,,0.00,WeatherDisplay:10.37,2013-02-21 12:36:00,
2013-02-21 06:41:00,18.0,11.7,29.00,East,90,13.8,13.8,76,0.00,CLR,,0.00,WeatherDisplay:10.37,2013-02-21 12:41:00,
2013-02-21 06:46:00,18.0,11.7,29.00,East,90,8.1,8.1,76,0.00,CLR,,0.00,WeatherDisplay:10.37,2013-02-21 12:46:00,
2013-02-21 06:51:00,17.8,11.8,29.00,East,90,12.7,12.7,77,0.00,CLR,,0.00,WeatherDisplay:10.37,2013-02-21 12:51:00,
2013-02-21 06:56:00,17.8,11.8,29.00,SE,135,12.7,12.7,77,0.00,CLR,,0.00,WeatherDisplay:10.37,2013-02-21 12:56:00,
2013-02-21 07:02:00,17.8,11.8,29.00,East,90,12.7,12.7,77,0.00,CLR,,0.00,WeatherDisplay:10.37,2013-02-21 13:02:00,
2013-02-21 07:07:00,17.8,11.8,29.00,East,90,12.7,12.7,77,0.00,CLR,,0.00,WeatherDisplay:10.37,2013-02-21 13:07:00,
2013-02-21 07:12:00,17.8,11.8,29.01,East,90,12.7,12.7,77,0.00,CLR,,0.00,WeatherDisplay:10.37,2013-02-21 13:12:00,
2013-02-21 07:17:00,17.8,11.8,28.99,East,90,10.4,10.4,77,0.00,CLR,,0.00,WeatherDisplay:10.37,2013-02-21 13:17:00,
2013-02-21 07:22:00,17.8,11.8,28.99,East,90,13.8,13.8,77,0.00,CLR,,0.00,WeatherDisplay:10.37,2013-02-21 13:22:00,
2013-02-21 07:28:00,17.8,11.8,28.99,East,90,12.7,12.7,77,0.00,CLR,,0.00,WeatherDisplay:10.37,2013-02-21 13:28:00,
2013-02-21 07:33:00,17.8,11.8,29.00,East,90,12.7,12.7,77,0.00,CLR,,0.00,WeatherDisplay:10.37,2013-02-21 13:33:00,
2013-02-21 07:38:00,17.8,11.8,29.00,ESE,112,13.8,13.8,77,0.00,CLR,,0.00,WeatherDisplay:10.37,2013-02-21 13:38:00,
2013-02-21 07:43:00,17.8,11.8,29.00,ESE,112,13.8,13.8,77,0.00,CLR,,0.00,WeatherDisplay:10.37,2013-02-21 13:43:00,
2013-02-21 07:49:00,17.8,11.8,29.00,East,90,12.7,12.7,77,0.00,CLR,,0.00,WeatherDisplay:10.37,2013-02-21 13:49:00,
2013-02-21 07:54:00,17.6,11.6,29.00,ESE,112,15.0,15.0,77,0.00,CLR,,0.00,WeatherDisplay:10.37,2013-02-21 13:54:00,
2013-02-21 07:59:00,17.6,11.6,29.00,East,90,12.7,12.7,77,0.00,CLR,,0.00,WeatherDisplay:10.37,2013-02-21 13:59:00,
2013-02-21 08:04:00,17.8,11.8,29.00,SE,135,16.1,16.1,77,0.00,CLR,,0.00,WeatherDisplay:10.37,2013-02-21 14:04:00,
2013-02-21 08:09:00,17.8,11.8,29.00,East,90,11.5,11.5,77,0.00,CLR,,0.00,WeatherDisplay:10.37,2013-02-21 14:09:00,
2013-02-21 08:14:00,17.8,11.8,29.00,East,90,15.0,15.0,77,0.00,CLR,,0.00,WeatherDisplay:10.37,2013-02-21 14:14:00,
2013-02-21 08:20:00,17.8,11.8,29.00,East,90,9.2,9.2,77,0.00,CLR,,0.00,WeatherDisplay:10.37,2013-02-21 14:20:00,
2013-02-21 08:25:00,18.0,12.0,29.00,East,90,12.7,12.7,77,0.00,CLR,,0.00,WeatherDisplay:10.37,2013-02-21 14:25:00,
2013-02-21 08:30:00,18.1,12.1,29.00,East,90,15.0,15.0,77,0.00,CLR,,0.00,WeatherDisplay:10.37,2013-02-21 14:30:00,
2013-02-21 08:35:00,18.1,12.1,29.00,East,90,12.7,12.7,77,0.00,CLR,,0.00,WeatherDisplay:10.37,2013-02-21 14:35:00,
2013-02-21 08:41:00,18.1,11.8,29.00,East,90,12.7,12.7,76,0.00,CLR,,0.00,WeatherDisplay:10.37,2013-02-21 14:41:00,
2013-02-21 08:46:00,18.1,12.1,29.00,East,90,10.4,10.4,77,0.00,CLR,,0.00,WeatherDisplay:10.37,2013-02-21 14:46:00,
2013-02-21 08:51:00,18.3,12.0,29.00,East,90,10.4,10.4,76,0.00,CLR,,0.00,WeatherDisplay:10.37,2013-02-21 14:51:00,
2013-02-21 08:56:00,18.3,12.0,29.01,ESE,112,15.0,15.0,76,0.00,CLR,,0.00,WeatherDisplay:10.37,2013-02-21 14:56:00,
2013-02-21 09:01:00,18.5,12.2,29.01,East,90,10.4,10.4,76,0.00,CLR,,0.00,WeatherDisplay:10.37,2013-02-21 15:01:00,
2013-02-21 09:07:00,18.7,12.1,29.00,East,90,13.8,13.8,75,0.00,CLR,,0.00,WeatherDisplay:10.37,2013-02-21 15:07:00,
2013-02-21 09:12:00,18.7,12.1,29.01,SE,135,13.8,13.8,75,0.00,CLR,,0.00,WeatherDisplay:10.37,2013-02-21 15:12:00,
2013-02-21 09:17:00,18.9,12.2,29.00,East,90,17.3,17.3,75,0.00,CLR,,0.00,WeatherDisplay:10.37,2013-02-21 15:17:00,
2013-02-21 09:22:00,18.9,11.9,29.00,SE,135,17.3,17.3,74,0.00,CLR,,0.00,WeatherDisplay:10.37,2013-02-21 15:22:00,
2013-02-21 09:27:00,18.9,11.9,29.00,East,90,15.2,15.2,74,0.00,CLR,,0.00,WeatherDisplay:10.37,2013-02-21 15:27:00,
2013-02-21 09:33:00,18.9,11.9,29.01,East,90,12.7,12.7,74,0.00,CLR,,0.00,WeatherDisplay:10.37,2013-02-21 15:33:00,
2013-02-21 09:38:00,19.0,12.1,29.00,East,90,10.4,10.4,74,0.00,CLR,,0.00,WeatherDisplay:10.37,2013-02-21 15:38:00,
2013-02-21 09:43:00,19.2,12.0,29.00,SE,135,13.8,13.8,73,0.00,CLR,,0.00,WeatherDisplay:10.37,2013-02-21 15:43:00,
2013-02-21 09:48:00,19.4,12.2,29.01,East,90,11.5,11.5,73,0.00,CLR,,0.00,WeatherDisplay:10.37,2013-02-21 15:48:00,
2013-02-21 09:53:00,19.4,12.2,29.01,ESE,112,12.7,12.7,73,0.00,CLR,,0.00,WeatherDisplay:10.37,2013-02-21 15:53:00,
2013-02-21 09:59:00,19.4,12.2,29.01,East,90,12.7,12.7,73,0.00,CLR,,0.00,WeatherDisplay:10.37,2013-02-21 15:59:00,
2013-02-21 10:04:00,19.4,12.2,29.01,SE,135,11.5,11.5,73,0.00,CLR,,0.00,WeatherDisplay:10.37,2013-02-21 16:04:00,
2013-02-21 10:09:00,19.6,12.0,29.01,SE,135,12.7,12.7,72,0.00,CLR,,0.00,WeatherDisplay:10.37,2013-02-21 16:09:00,
2013-02-21 10:14:00,19.8,11.9,29.01,East,90,11.5,11.5,71,0.00,CLR,,0.00,WeatherDisplay:10.37,2013-02-21 16:14:00,
2013-02-21 10:19:00,19.9,12.0,29.01,East,90,10.4,10.4,71,0.00,CLR,,0.00,WeatherDisplay:10.37,2013-02-21 16:19:00,
2013-02-21 10:25:00,20.1,11.9,29.01,East,90,13.8,13.8,70,0.00,CLR,,0.00,WeatherDisplay:10.37,2013-02-21 16:25:00,
2013-02-21 10:30:00,20.5,11.9,29.00,SE,135,15.0,15.0,69,0.00,CLR,,0.00,WeatherDisplay:10.37,2013-02-21 16:30:00,
2013-02-21 10:35:00,20.7,11.8,29.00,East,90,12.7,12.7,68,0.00,CLR,,0.00,WeatherDisplay:10.37,2013-02-21 16:35:00,
2013-02-21 10:40:00,20.7,11.8,29.00,ESE,112,15.0,15.0,68,0.00,CLR,,0.00,WeatherDisplay:10.37,2013-02-21 16:40:00,
2013-02-21 10:46:00,21.0,11.8,28.99,East,90,15.0,15.0,67,0.00,CLR,,0.00,WeatherDisplay:10.37,2013-02-21 16:46:00,
2013-02-21 10:51:00,21.6,12.3,28.99,East,90,10.4,10.4,67,0.00,CLR,,0.00,WeatherDisplay:10.37,2013-02-21 16:51:00,
2013-02-21 10:56:00,21.9,11.9,28.98,East,90,17.3,17.3,65,0.00,CLR,,0.00,WeatherDisplay:10.37,2013-02-21 16:56:00,
2013-02-21 11:01:00,22.1,12.1,28.98,East,90,12.7,12.7,65,0.00,CLR,,0.00,WeatherDisplay:10.37,2013-02-21 17:01:00,
2013-02-21 11:06:00,22.1,11.8,28.97,East,90,17.3,17.3,64,0.00,CLR,,0.00,WeatherDisplay:10.37,2013-02-21 17:06:00,
2013-02-21 11:11:00,22.5,12.1,28.98,SE,135,17.3,17.3,64,0.00,CLR,,0.00,WeatherDisplay:10.37,2013-02-21 17:11:00,
2013-02-21 11:16:00,22.8,12.1,28.98,ESE,112,17.3,17.3,63,0.00,CLR,,0.00,WeatherDisplay:10.37,2013-02-21 17:16:00,
2013-02-21 11:22:00,23.2,12.1,28.97,East,90,12.7,12.7,62,0.00,CLR,,0.00,WeatherDisplay:10.37,2013-02-21 17:22:00,
2013-02-21 11:27:00,23.0,11.5,28.97,East,90,15.0,15.0,61,0.00,CLR,,0.00,WeatherDisplay:10.37,2013-02-21 17:27:00,
2013-02-21 11:32:00,23.0,11.5,28.96,East,90,15.0,15.0,61,0.00,CLR,,0.00,WeatherDisplay:10.37,2013-02-21 17:32:00,
2013-02-21 11:37:00,23.2,11.7,28.97,East,90,15.0,15.0,61,0.00,CLR,,0.00,WeatherDisplay:10.37,2013-02-21 17:37:00,
2013-02-21 11:42:00,23.5,11.7,28.97,East,90,15.0,15.0,60,0.00,CLR,,0.00,WeatherDisplay:10.37,2013-02-21 17:42:00,
2013-02-21 11:47:00,23.5,11.7,28.96,SE,135,15.0,15.0,60,0.00,CLR,,0.00,WeatherDisplay:10.37,2013-02-21 17:47:00,
2013-02-21 11:53:00,23.7,11.8,28.96,East,90,12.7,12.7,60,0.00,CLR,,0.00,WeatherDisplay:10.37,2013-02-21 17:53:00,
2013-02-21 11:58:00,24.3,11.6,28.96,East,90,12.7,13.7,58,0.00,CLR,,0.00,WeatherDisplay:10.37,2013-02-21 17:58:00,
2013-02-21 12:03:00,24.3,11.6,28.96,East,90,16.1,16.1,58,0.00,CLR,,0.00,WeatherDisplay:10.37,2013-02-21 18:03:00,
2013-02-21 12:08:00,24.1,11.0,28.96,East,90,15.0,15.0,57,0.00,CLR,,0.00,WeatherDisplay:10.37,2013-02-21 18:08:00,
2013-02-21 12:14:00,24.1,11.4,28.94,East,90,15.0,15.0,58,0.00,CLR,,0.00,WeatherDisplay:10.37,2013-02-21 18:14:00,
2013-02-21 12:19:00,24.1,11.0,28.94,East,90,16.1,16.1,57,0.00,CLR,,0.00,WeatherDisplay:10.37,2013-02-21 18:19:00,
2013-02-21 12:24:00,24.3,11.2,28.94,East,90,16.1,16.1,57,0.00,CLR,,0.00,WeatherDisplay:10.37,2013-02-21 18:24:00,
2013-02-21 12:29:00,24.3,11.2,28.94,ESE,112,12.7,12.7,57,0.00,CLR,,0.00,WeatherDisplay:10.37,2013-02-21 18:29:00,
2013-02-21 12:34:00,24.3,10.8,28.94,East,90,19.6,19.6,56,0.00,CLR,,0.00,WeatherDisplay:10.37,2013-02-21 18:34:00,
2013-02-21 12:39:00,24.3,10.8,28.94,East,90,16.1,16.1,56,0.00,CLR,,0.00,WeatherDisplay:10.37,2013-02-21 18:39:00,
2013-02-21 12:44:00,24.3,10.8,28.94,East,90,15.0,15.0,56,0.00,CLR,,0.00,WeatherDisplay:10.37,2013-02-21 18:44:00,
2013-02-21 12:50:00,24.6,11.5,28.93,East,90,13.8,13.8,57,0.00,CLR,,0.00,WeatherDisplay:10.37,2013-02-21 18:50:00,
2013-02-21 12:55:00,24.6,11.5,28.92,East,90,15.0,15.0,57,0.00,CLR,,0.00,WeatherDisplay:10.37,2013-02-21 18:55:00,
2013-02-21 13:00:00,24.8,11.7,28.92,East,90,17.3,17.3,57,0.00,CLR,,0.00,WeatherDisplay:10.37,2013-02-21 19:00:00,
2013-02-21 13:05:00,24.6,11.1,28.91,East,90,19.6,19.6,56,0.00,CLR,,0.00,WeatherDisplay:10.37,2013-02-21 19:05:00,
2013-02-21 13:11:00,24.6,11.1,28.90,East,90,17.3,17.3,56,0.00,CLR,,0.00,WeatherDisplay:10.37,2013-02-21 19:11:00,
2013-02-21 13:16:00,24.6,10.7,28.90,NE,45,19.6,19.6,55,0.00,CLR,,0.00,WeatherDisplay:10.37,2013-02-21 19:16:00,
2013-02-21 13:21:00,24.6,11.1,28.90,East,90,19.6,19.6,56,0.00,CLR,,0.00,WeatherDisplay:10.37,2013-02-21 19:21:00,
2013-02-21 13:26:00,24.4,11.0,28.89,ENE,68,19.6,19.6,56,0.00,CLR,,0.00,WeatherDisplay:10.37,2013-02-21 19:26:00,
2013-02-21 13:31:00,24.4,11.0,28.89,East,90,19.6,19.6,56,0.00,CLR,,0.00,WeatherDisplay:10.37,2013-02-21 19:31:00,
2013-02-21 13:37:00,24.6,11.1,28.88,East,90,17.3,17.3,56,0.00,CLR,,0.00,WeatherDisplay:10.37,2013-02-21 19:37:00,
2013-02-21 13:42:00,24.8,11.3,28.88,NE,45,17.3,17.3,56,0.00,CLR,,0.00,WeatherDisplay:10.37,2013-02-21 19:42:00,
2013-02-21 13:47:00,25.0,11.5,28.88,NE,45,15.0,15.0,56,0.00,CLR,,0.00,WeatherDisplay:10.37,2013-02-21 19:47:00,
2013-02-21 13:52:00,25.0,11.5,28.88,NE,45,17.3,17.3,56,0.00,CLR,,0.00,WeatherDisplay:10.37,2013-02-21 19:52:00,
2013-02-21 13:57:00,25.0,11.1,28.88,East,90,17.3,17.3,55,0.00,CLR,,0.00,WeatherDisplay:10.37,2013-02-21 19:57:00,
2013-02-21 14:03:00,25.0,10.7,28.87,ENE,68,20.7,20.7,54,0.00,CLR,,0.00,WeatherDisplay:10.37,2013-02-21 20:03:00,
2013-02-21 14:08:00,25.0,10.7,28.87,ENE,68,19.7,19.7,54,0.00,CLR,,0.00,WeatherDisplay:10.37,2013-02-21 20:08:00,
2013-02-21 14:13:00,25.2,10.8,28.87,East,90,19.6,19.6,54,0.00,CLR,,0.00,WeatherDisplay:10.37,2013-02-21 20:13:00,
2013-02-21 14:18:00,25.2,10.8,28.87,East,90,19.6,19.6,54,0.00,CLR,,0.00,WeatherDisplay:10.37,2013-02-21 20:18:00,
2013-02-21 14:23:00,25.2,10.8,28.87,NE,45,19.6,19.6,54,0.00,CLR,,0.00,WeatherDisplay:10.37,2013-02-21 20:23:00,
2013-02-21 14:29:00,25.2,10.8,28.87,East,90,18.4,18.4,54,0.00,CLR,,0.00,WeatherDisplay:10.37,2013-02-21 20:29:00,
2013-02-21 14:34:00,25.2,10.8,28.88,East,90,18.4,18.4,54,0.00,CLR,,0.00,WeatherDisplay:10.37,2013-02-21 20:34:00,
2013-02-21 14:39:00,25.2,10.8,28.88,NE,45,19.6,19.6,54,0.00,CLR,,0.00,WeatherDisplay:10.37,2013-02-21 20:39:00,
2013-02-21 14:44:00,25.2,10.8,28.88,East,90,17.3,17.3,54,0.00,CLR,,0.00,WeatherDisplay:10.37,2013-02-21 20:44:00,
2013-02-21 14:49:00,25.2,10.8,28.88,East,90,21.9,21.9,54,0.00,CLR,,0.00,WeatherDisplay:10.37,2013-02-21 20:49:00,
2013-02-21 14:54:00,25.2,10.8,28.88,East,90,19.6,19.6,54,0.00,CLR,,0.00,WeatherDisplay:10.37,2013-02-21 20:54:00,
2013-02-21 14:59:00,25.2,10.8,28.88,East,90,19.6,19.6,54,0.00,CLR,,0.00,WeatherDisplay:10.37,2013-02-21 20:59:00,
2013-02-21 15:05:00,25.2,11.2,28.88,East,90,12.7,12.7,55,0.00,CLR,,0.00,WeatherDisplay:10.37,2013-02-21 21:05:00,
2013-02-21 15:10:00,25.2,10.8,28.88,East,90,12.7,12.7,54,0.00,CLR,,0.00,WeatherDisplay:10.37,2013-02-21 21:10:00,
2013-02-21 15:15:00,25.0,11.9,28.88,NE,45,19.6,19.6,57,0.00,CLR,,0.00,WeatherDisplay:10.37,2013-02-21 21:15:00,
2013-02-21 15:20:00,24.1,15.0,28.88,East,90,19.6,19.6,68,0.00,CLR,,0.00,WeatherDisplay:10.37,2013-02-21 21:20:00,
2013-02-21 15:26:00,23.2,16.4,28.88,East,90,21.9,21.9,75,0.00,CLR,,0.00,WeatherDisplay:10.37,2013-02-21 21:26:00,
2013-02-21 15:31:00,22.6,17.1,28.88,ESE,112,17.3,17.3,79,0.00,CLR,,0.00,WeatherDisplay:10.37,2013-02-21 21:31:00,
2013-02-21 15:36:00,22.3,17.9,28.87,East,90,18.4,18.4,83,0.00,CLR,,0.00,WeatherDisplay:10.37,2013-02-21 21:36:00,
2013-02-21 15:41:00,21.9,18.6,28.88,East,90,17.3,17.3,87,0.00,CLR,,0.00,WeatherDisplay:10.37,2013-02-21 21:41:00,
2013-02-21 15:46:00,21.6,18.8,28.88,East,90,15.0,15.0,89,0.00,CLR,,0.00,WeatherDisplay:10.37,2013-02-21 21:46:00,
2013-02-21 15:51:00,21.4,19.2,28.88,East,90,13.8,13.8,91,0.00,CLR,,0.00,WeatherDisplay:10.37,2013-02-21 21:51:00,
2013-02-21 15:56:00,21.4,19.4,28.87,East,90,15.0,15.0,92,0.00,CLR,,0.00,WeatherDisplay:10.37,2013-02-21 21:56:00,
2013-02-21 16:02:00,21.4,19.7,28.87,ENE,68,15.0,15.0,93,0.00,CLR,,0.00,WeatherDisplay:10.37,2013-02-21 22:02:00,
2013-02-21 16:07:00,21.4,19.7,28.87,ENE,68,12.7,12.7,93,0.00,CLR,,0.00,WeatherDisplay:10.37,2013-02-21 22:07:00,
2013-02-21 16:12:00,21.2,19.7,28.87,NE,45,16.1,16.1,94,0.00,CLR,,0.00,WeatherDisplay:10.37,2013-02-21 22:12:00,
2013-02-21 16:17:00,21.4,20.2,28.87,East,90,15.0,15.0,95,0.00,CLR,,0.00,WeatherDisplay:10.37,2013-02-21 22:17:00,
2013-02-21 16:22:00,21.4,20.2,28.86,NE,45,15.0,15.0,95,0.00,CLR,,0.00,WeatherDisplay:10.37,2013-02-21 22:22:00,
2013-02-21 16:28:00,21.4,20.2,28.86,East,90,12.7,12.7,95,0.00,CLR,,0.00,WeatherDisplay:10.37,2013-02-21 22:28:00,
2013-02-21 16:33:00,21.4,20.2,28.86,East,90,15.0,15.0,95,0.00,CLR,,0.00,WeatherDisplay:10.37,2013-02-21 22:33:00,
2013-02-21 16:38:00,21.4,20.2,28.85,NE,45,15.0,15.0,95,0.00,CLR,,0.00,WeatherDisplay:10.37,2013-02-21 22:38:00,
2013-02-21 16:44:00,21.2,20.2,28.85,NE,45,15.0,15.0,96,0.00,CLR,,0.00,WeatherDisplay:10.37,2013-02-21 22:44:00,
2013-02-21 16:49:00,21.2,20.2,28.85,East,90,15.0,15.0,96,0.00,CLR,,0.00,WeatherDisplay:10.37,2013-02-21 22:49:00,
2013-02-21 16:54:00,21.2,20.2,28.85,NE,45,12.7,12.7,96,0.00,CLR,,0.00,WeatherDisplay:10.37,2013-02-21 22:54:00,
2013-02-21 17:00:00,21.2,20.2,28.84,East,90,15.0,15.0,96,0.00,CLR,,0.00,WeatherDisplay:10.37,2013-02-21 23:00:00,
2013-02-21 17:05:00,21.4,20.4,28.84,NE,45,12.7,13.7,96,0.00,CLR,,0.00,WeatherDisplay:10.37,2013-02-21 23:05:00,
2013-02-21 17:10:00,21.2,20.2,28.84,NE,45,18.4,18.4,96,0.00,CLR,,0.00,WeatherDisplay:10.37,2013-02-21 23:10:00,
2013-02-21 17:15:00,21.2,20.2,28.84,ENE,68,14.0,21.0,96,0.00,CLR,,0.00,WeatherDisplay:10.37,2013-02-21 23:15:00,
2013-02-21 17:20:00,21.2,20.2,28.84,NE,45,17.3,17.3,96,0.00,CLR,,0.00,WeatherDisplay:10.37,2013-02-21 23:20:00,
2013-02-21 17:25:00,21.2,20.5,28.84,NE,45,15.0,15.0,97,0.00,CLR,,0.00,WeatherDisplay:10.37,2013-02-21 23:25:00,
2013-02-21 17:30:00,21.0,20.3,28.83,NE,45,17.3,17.3,97,0.00,CLR,,0.00,WeatherDisplay:10.37,2013-02-21 23:30:00,
2013-02-21 17:35:00,21.0,20.3,28.83,NE,45,19.6,19.6,97,0.00,CLR,,0.00,WeatherDisplay:10.37,2013-02-21 23:35:00,
2013-02-21 17:40:00,21.0,20.3,28.83,NE,45,18.4,18.4,97,0.00,CLR,,0.00,WeatherDisplay:10.37,2013-02-21 23:40:00,
2013-02-21 17:46:00,21.0,20.3,28.82,NE,45,18.4,18.4,97,0.00,CLR,,0.00,WeatherDisplay:10.37,2013-02-21 23:46:00,
2013-02-21 17:51:00,21.0,20.3,28.82,NE,45,16.1,16.1,97,0.00,CLR,,0.00,WeatherDisplay:10.37,2013-02-21 23:51:00,
2013-02-21 17:56:00,21.0,20.3,28.82,NE,45,13.8,13.8,97,0.00,CLR,,0.00,WeatherDisplay:10.37,2013-02-21 23:56:00,
2013-02-21 18:01:00,20.8,20.1,28.82,NE,45,15.0,15.0,97,0.00,CLR,,0.00,WeatherDisplay:10.37,2013-02-22 00:01:00,
2013-02-21 18:07:00,20.8,20.1,28.82,NE,45,16.1,16.1,97,0.00,CLR,,0.00,WeatherDisplay:10.37,2013-02-22 00:07:00,
2013-02-21 18:12:00,20.8,20.1,28.82,NE,45,13.8,13.8,97,0.00,CLR,,0.00,WeatherDisplay:10.37,2013-02-22 00:12:00,
2013-02-21 18:17:00,20.8,20.1,28.82,NE,45,16.1,16.1,97,0.00,CLR,,0.00,WeatherDisplay:10.37,2013-02-22 00:17:00,
2013-02-21 18:22:00,20.8,20.1,28.82,NE,45,16.1,16.1,97,0.00,CLR,,0.00,WeatherDisplay:10.37,2013-02-22 00:22:00,
2013-02-21 18:28:00,20.8,20.1,28.82,NE,45,17.3,17.3,97,0.00,CLR,,0.00,WeatherDisplay:10.37,2013-02-22 00:28:00,
2013-02-21 18:33:00,20.8,20.1,28.82,NE,45,12.7,12.7,97,0.00,CLR,,0.00,WeatherDisplay:10.37,2013-02-22 00:33:00,
2013-02-21 18:38:00,20.8,20.4,28.82,East,90,15.0,15.0,98,0.00,CLR,,0.00,WeatherDisplay:10.37,2013-02-22 00:38:00,
2013-02-21 18:43:00,21.0,20.3,28.82,NE,45,12.7,12.7,97,0.00,CLR,,0.00,WeatherDisplay:10.37,2013-02-22 00:43:00,
2013-02-21 18:48:00,21.0,20.5,28.82,ENE,68,10.4,10.4,98,0.00,CLR,,0.00,WeatherDisplay:10.37,2013-02-22 00:48:00,
2013-02-21 18:53:00,21.0,20.5,28.82,South,180,17.3,17.3,98,0.00,CLR,,0.00,WeatherDisplay:10.37,2013-02-22 00:53:00,
2013-02-21 18:58:00,21.0,20.5,28.82,East,90,15.0,15.0,98,0.00,CLR,,0.00,WeatherDisplay:10.37,2013-02-22 00:58:00,
2013-02-21 19:03:00,21.0,20.5,28.82,NE,45,17.3,17.3,98,0.00,CLR,,0.00,WeatherDisplay:10.37,2013-02-22 01:03:00,
2013-02-21 19:09:00,21.0,20.5,28.82,East,90,19.0,19.0,98,0.00,CLR,,0.00,WeatherDisplay:10.37,2013-02-22 01:09:00,
2013-02-21 19:14:00,21.0,20.5,28.82,NE,45,20.7,20.7,98,0.00,CLR,,0.00,WeatherDisplay:10.37,2013-02-22 01:14:00,
2013-02-21 19:19:00,21.0,20.5,28.82,NE,45,15.0,15.0,98,0.00,CLR,,0.00,WeatherDisplay:10.37,2013-02-22 01:19:00,
2013-02-21 19:24:00,20.8,20.4,28.82,NE,45,19.6,19.6,98,0.00,CLR,,0.00,WeatherDisplay:10.37,2013-02-22 01:24:00,
2013-02-21 19:29:00,20.8,20.4,28.82,NE,45,17.3,17.3,98,0.00,CLR,,0.00,WeatherDisplay:10.37,2013-02-22 01:29:00,
2013-02-21 19:35:00,20.8,20.4,28.82,NE,45,16.1,16.1,98,0.00,CLR,,0.00,WeatherDisplay:10.37,2013-02-22 01:35:00,
2013-02-21 19:40:00,20.8,20.4,28.82,NE,45,19.0,19.0,98,0.00,CLR,,0.00,WeatherDisplay:10.37,2013-02-22 01:40:00,
2013-02-21 19:45:00,20.8,20.4,28.82,NE,45,16.1,16.1,98,0.00,CLR,,0.00,WeatherDisplay:10.37,2013-02-22 01:45:00,
2013-02-21 19:50:00,20.8,20.4,28.82,NE,45,19.6,19.6,98,0.00,CLR,,0.00,WeatherDisplay:10.37,2013-02-22 01:50:00,
2013-02-21 19:55:00,20.7,20.2,28.81,NE,45,18.4,18.4,98,0.00,CLR,,0.00,WeatherDisplay:10.37,2013-02-22 01:55:00,
2013-02-21 20:01:00,20.7,20.2,28.81,NE,45,16.1,16.1,98,0.00,CLR,,0.00,WeatherDisplay:10.37,2013-02-22 02:01:00,
2013-02-21 20:06:00,20.7,20.2,28.81,NE,45,16.1,16.1,98,0.00,CLR,,0.00,WeatherDisplay:10.37,2013-02-22 02:06:00,
2013-02-21 20:11:00,20.7,20.2,28.81,East,90,15.0,15.0,98,0.00,CLR,,0.00,WeatherDisplay:10.37,2013-02-22 02:11:00,
2013-02-21 20:16:00,20.7,20.2,28.82,NE,45,15.0,15.0,98,0.00,CLR,,0.00,WeatherDisplay:10.37,2013-02-22 02:16:00,
2013-02-21 20:21:00,20.5,20.0,28.81,NE,45,17.3,17.3,98,0.00,CLR,,0.00,WeatherDisplay:10.37,2013-02-22 02:21:00,
2013-02-21 20:27:00,20.5,20.0,28.81,NE,45,19.6,19.6,98,0.00,CLR,,0.00,WeatherDisplay:10.37,2013-02-22 02:27:00,
2013-02-21 20:32:00,20.5,20.0,28.82,NE,45,15.0,15.0,98,0.00,CLR,,0.00,WeatherDisplay:10.37,2013-02-22 02:32:00,
2013-02-21 20:37:00,20.5,20.0,28.81,NE,45,18.4,18.4,98,0.00,CLR,,0.00,WeatherDisplay:10.37,2013-02-22 02:37:00,
2013-02-21 20:42:00,20.5,20.0,28.81,NE,45,16.1,16.1,98,0.00,CLR,,0.00,WeatherDisplay:10.37,2013-02-22 02:42:00,
2013-02-21 20:48:00,20.3,19.8,28.81,NE,45,16.1,16.1,98,0.00,CLR,,0.00,WeatherDisplay:10.37,2013-02-22 02:48:00,
2013-02-21 20:53:00,20.3,19.8,28.80,NE,45,19.6,19.6,98,0.00,CLR,,0.00,WeatherDisplay:10.37,2013-02-22 02:53:00,
2013-02-21 20:58:00,20.3,19.8,28.80,NE,45,17.3,17.3,98,0.00,CLR,,0.00,WeatherDisplay:10.37,2013-02-22 02:58:00,
2013-02-21 21:03:00,20.1,19.6,28.80,NE,45,20.7,20.7,98,0.00,CLR,,0.00,WeatherDisplay:10.37,2013-02-22 03:03:00,
2013-02-21 21:08:00,20.1,19.6,28.80,NE,45,23.0,23.0,98,0.00,CLR,,0.00,WeatherDisplay:10.37,2013-02-22 03:08:00,
2013-02-21 21:14:00,19.9,19.5,28.80,ENE,68,17.3,17.3,98,0.00,CLR,,0.00,WeatherDisplay:10.37,2013-02-22 03:14:00,
2013-02-21 21:19:00,19.9,19.5,28.80,NE,45,13.8,13.8,98,0.00,CLR,,0.00,WeatherDisplay:10.37,2013-02-22 03:19:00,
2013-02-21 21:24:00,19.9,19.5,28.80,NE,45,16.1,16.1,98,0.00,CLR,,0.00,WeatherDisplay:10.37,2013-02-22 03:24:00,
2013-02-21 21:29:00,19.9,19.5,28.80,NE,45,15.0,15.0,98,0.00,CLR,,0.00,WeatherDisplay:10.37,2013-02-22 03:29:00,
2013-02-21 21:34:00,19.8,19.3,28.80,NE,45,20.7,20.7,98,0.00,CLR,,0.00,WeatherDisplay:10.37,2013-02-22 03:34:00,
2013-02-21 21:39:00,19.8,19.3,28.81,NE,45,17.3,17.3,98,0.00,CLR,,0.00,WeatherDisplay:10.37,2013-02-22 03:39:00,
2013-02-21 21:45:00,19.6,18.9,28.81,NE,52,12.0,21.0,97,0.00,CLR,,0.00,WeatherDisplay:10.37,2013-02-22 03:45:00,
2013-02-21 21:50:00,19.4,18.7,28.80,NE,45,15.0,15.0,97,0.00,CLR,,0.00,WeatherDisplay:10.37,2013-02-22 03:50:00,
2013-02-21 21:55:00,19.4,18.7,28.80,NE,45,19.6,19.6,97,0.00,CLR,,0.00,WeatherDisplay:10.37,2013-02-22 03:55:00,
2013-02-21 22:00:00,19.2,18.5,28.80,NE,45,15.0,15.0,97,0.00,CLR,,0.00,WeatherDisplay:10.37,2013-02-22 04:00:00,
2013-02-21 22:06:00,19.2,18.5,28.80,NE,45,15.0,15.0,97,0.00,CLR,,0.00,WeatherDisplay:10.37,2013-02-22 04:06:00,
2013-02-21 22:11:00,19.0,18.6,28.80,NE,45,15.0,15.0,98,0.00,CLR,,0.00,WeatherDisplay:10.37,2013-02-22 04:11:00,
2013-02-21 22:16:00,19.0,18.3,28.80,NE,45,13.8,13.8,97,0.00,CLR,,0.00,WeatherDisplay:10.37,2013-02-22 04:16:00,
2013-02-21 22:21:00,19.0,18.3,28.79,NE,45,12.7,12.7,97,0.00,CLR,,0.00,WeatherDisplay:10.37,2013-02-22 04:21:00,
2013-02-21 22:27:00,19.0,18.3,28.79,NE,45,10.4,10.7,97,0.00,CLR,,0.00,WeatherDisplay:10.37,2013-02-22 04:27:00,
2013-02-21 22:32:00,19.0,18.3,28.79,NE,45,12.7,12.7,97,0.00,CLR,,0.00,WeatherDisplay:10.37,2013-02-22 04:32:00,
2013-02-21 22:37:00,18.9,18.2,28.79,NE,45,12.7,12.7,97,0.00,CLR,,0.00,WeatherDisplay:10.37,2013-02-22 04:37:00,
2013-02-21 22:42:00,18.9,18.2,28.78,NE,45,12.7,12.7,97,0.00,CLR,,0.00,WeatherDisplay:10.37,2013-02-22 04:42:00,
2013-02-21 22:47:00,18.7,18.0,28.78,NE,45,13.8,13.8,97,0.00,CLR,,0.00,WeatherDisplay:10.37,2013-02-22 04:47:00,
2013-02-21 22:53:00,18.7,18.0,28.78,NE,45,11.5,11.5,97,0.00,CLR,,0.00,WeatherDisplay:10.37,2013-02-22 04:53:00,
2013-02-21 22:58:00,18.7,18.0,28.78,North,0,11.5,11.5,97,0.00,CLR,,0.00,WeatherDisplay:10.37,2013-02-22 04:58:00,
2013-02-21 23:00:00,18.5,17.8,28.78,NE,45,15.0,15.0,97,0.00,CLR,,0.00,WeatherDisplay:10.37,2013-02-22 05:00:00,
2013-02-21 23:02:00,18.7,18.0,28.78,NE,45,15.0,15.0,97,0.00,CLR,,0.00,WeatherDisplay:10.37,2013-02-22 05:02:00,
2013-02-21 23:07:00,18.5,17.8,28.78,NE,45,15.0,15.0,97,0.00,CLR,,0.00,WeatherDisplay:10.37,2013-02-22 05:07:00,
2013-02-21 23:13:00,18.3,17.6,28.78,NE,45,12.7,12.7,97,0.00,CLR,,0.00,WeatherDisplay:10.37,2013-02-22 05:13:00,
2013-02-21 23:18:00,18.3,17.6,28.77,NE,45,15.0,15.0,97,0.00,CLR,,0.00,WeatherDisplay:10.37,2013-02-22 05:18:00,
2013-02-21 23:23:00,18.3,17.6,28.77,NE,45,13.8,13.8,97,0.00,CLR,,0.00,WeatherDisplay:10.37,2013-02-22 05:23:00,
2013-02-21 23:28:00,18.1,17.4,28.77,NE,45,17.3,17.3,97,0.00,CLR,,0.00,WeatherDisplay:10.37,2013-02-22 05:28:00,
2013-02-21 23:33:00,18.1,17.4,28.77,NE,45,12.7,12.7,97,0.00,CLR,,0.00,WeatherDisplay:10.37,2013-02-22 05:33:00,
2013-02-21 23:38:00,18.1,17.4,28.77,NE,45,15.0,15.0,97,0.00,CLR,,0.00,WeatherDisplay:10.37,2013-02-22 05:38:00,
2013-02-21 23:43:00,18.0,17.3,28.77,NE,45,17.3,17.3,97,0.00,CLR,,0.00,WeatherDisplay:10.37,2013-02-22 05:43:00,
2013-02-21 23:49:00,18.0,17.3,28.77,NE,45,15.0,15.0,97,0.00,CLR,,0.00,WeatherDisplay:10.37,2013-02-22 05:49:00,
2013-02-21 23:54:00,18.0,17.3,28.76,NE,45,13.8,13.8,97,0.00,CLR,,0.00,WeatherDisplay:10.37,2013-02-22 05:54:00,
2013-02-21 23:59:00,17.8,17.1,28.77,NE,45,15.0,15.0,97,0.00,CLR,,0.00,WeatherDisplay:10.37,2013-02-22 05:59:00,